sensor_id;sensor_type;location;lat;lon;timestamp;pressure;altitude;pressure_sealevel;temperature;humidity
38939;BME280;24211;49.980;19.776;2023-02-13T00:00:52;101387.56;;;3.36;100.00
38939;BME280;24211;49.980;19.776;2023-02-13T00:03:22;101396.19;;;3.38;100.00
38939;BME280;24211;49.980;19.776;2023-02-13T00:05:49;101387.56;;;3.36;100.00
38939;BME280;24211;49.980;19.776;2023-02-13T00:08:16;101391.16;;;3.35;100.00
38939;BME280;24211;49.980;19.776;2023-02-13T00:10:43;101392.84;;;3.36;100.00
38939;BME280;24211;49.980;19.776;2023-02-13T00:13:11;101398.38;;;3.33;100.00
38939;BME280;24211;49.980;19.776;2023-02-13T00:15:38;101386.41;;;3.29;100.00
38939;BME280;24211;49.980;19.776;2023-02-13T00:18:05;101395.03;;;3.31;100.00
38939;BME280;24211;49.980;19.776;2023-02-13T00:20:32;101396.84;;;3.30;100.00
38939;BME280;24211;49.980;19.776;2023-02-13T00:22:59;101393.94;;;3.34;100.00
38939;BME280;24211;49.980;19.776;2023-02-13T00:25:27;101400.78;;;3.36;100.00
38939;BME280;24211;49.980;19.776;2023-02-13T00:27:54;101395.50;;;3.36;100.00
38939;BME280;24211;49.980;19.776;2023-02-13T00:30:21;101400.06;;;3.34;100.00
38939;BME280;24211;49.980;19.776;2023-02-13T00:32:50;101382.38;;;3.35;100.00
38939;BME280;24211;49.980;19.776;2023-02-13T00:35:17;101384.91;;;3.36;100.00
38939;BME280;24211;49.980;19.776;2023-02-13T00:37:44;101389.22;;;3.37;100.00
38939;BME280;24211;49.980;19.776;2023-02-13T00:40:12;101390.31;;;3.35;100.00
38939;BME280;24211;49.980;19.776;2023-02-13T00:42:39;101390.31;;;3.35;100.00
38939;BME280;24211;49.980;19.776;2023-02-13T00:45:07;101390.31;;;3.35;100.00
38939;BME280;24211;49.980;19.776;2023-02-13T00:47:34;101393.81;;;3.35;100.00
38939;BME280;24211;49.980;19.776;2023-02-13T00:50:01;101379.88;;;3.33;100.00
38939;BME280;24211;49.980;19.776;2023-02-13T00:52:29;101375.56;;;3.32;100.00
38939;BME280;24211;49.980;19.776;2023-02-13T00:54:56;101383.63;;;3.30;100.00
38939;BME280;24211;49.980;19.776;2023-02-13T00:57:23;101389.03;;;3.29;100.00
38939;BME280;24211;49.980;19.776;2023-02-13T00:59:50;101390.59;;;3.32;100.00
38939;BME280;24211;49.980;19.776;2023-02-13T01:02:18;101384.47;;;3.31;100.00
38939;BME280;24211;49.980;19.776;2023-02-13T01:04:45;101375.84;;;3.29;100.00
38939;BME280;24211;49.980;19.776;2023-02-13T01:07:12;101365.25;;;3.29;100.00
38939;BME280;24211;49.980;19.776;2023-02-13T01:09:43;101366.34;;;3.26;100.00
38939;BME280;24211;49.980;19.776;2023-02-13T01:12:11;101360.22;;;3.26;100.00
38939;BME280;24211;49.980;19.776;2023-02-13T01:14:38;101351.59;;;3.24;100.00
38939;BME280;24211;49.980;19.776;2023-02-13T01:17:05;101353.25;;;3.25;100.00
38939;BME280;24211;49.980;19.776;2023-02-13T01:19:32;101354.94;;;3.26;100.00
38939;BME280;24211;49.980;19.776;2023-02-13T01:21:59;101340.75;;;3.27;100.00
38939;BME280;24211;49.980;19.776;2023-02-13T01:24:26;101346.16;;;3.25;100.00
38939;BME280;24211;49.980;19.776;2023-02-13T01:26:57;101341.03;;;3.24;100.00
38939;BME280;24211;49.980;19.776;2023-02-13T01:29:24;101340.03;;;3.25;100.00
38939;BME280;24211;49.980;19.776;2023-02-13T01:31:52;101342.69;;;3.25;100.00
38939;BME280;24211;49.980;19.776;2023-02-13T01:34:19;101337.66;;;3.22;100.00
38939;BME280;24211;49.980;19.776;2023-02-13T01:36:46;101333.09;;;3.24;100.00
38939;BME280;24211;49.980;19.776;2023-02-13T01:39:13;101324.34;;;3.23;100.00
38939;BME280;24211;49.980;19.776;2023-02-13T01:41:42;101326.84;;;3.25;100.00
38939;BME280;24211;49.980;19.776;2023-02-13T01:44:50;101326.84;;;3.25;100.00
38939;BME280;24211;49.980;19.776;2023-02-13T01:47:26;101324.09;;;3.26;100.00
38939;BME280;24211;49.980;19.776;2023-02-13T01:52:34;101320.13;;;3.21;100.00
38939;BME280;24211;49.980;19.776;2023-02-13T01:55:05;101317.25;;;3.24;100.00
38939;BME280;24211;49.980;19.776;2023-02-13T01:57:34;101315.56;;;3.23;100.00
38939;BME280;24211;49.980;19.776;2023-02-13T02:00:09;101313.16;;;3.20;100.00
38939;BME280;24211;49.980;19.776;2023-02-13T02:02:54;101314.66;;;3.13;100.00
38939;BME280;24211;49.980;19.776;2023-02-13T02:05:27;101303.88;;;3.05;100.00
38939;BME280;24211;49.980;19.776;2023-02-13T02:07:59;101298.59;;;3.05;100.00
38939;BME280;24211;49.980;19.776;2023-02-13T02:10:28;101300.28;;;3.06;100.00
38939;BME280;24211;49.980;19.776;2023-02-13T02:13:12;101302.47;;;3.01;100.00
38939;BME280;24211;49.980;19.776;2023-02-13T02:15:41;101292.75;;;3.01;100.00
38939;BME280;24211;49.980;19.776;2023-02-13T02:18:22;101293.59;;;3.02;100.00
38939;BME280;24211;49.980;19.776;2023-02-13T02:21:14;101296.94;;;3.04;100.00
38939;BME280;24211;49.980;19.776;2023-02-13T02:27:06;101282.03;;;3.03;100.00
38939;BME280;24211;49.980;19.776;2023-02-13T02:29:56;101287.47;;;3.01;100.00
38939;BME280;24211;49.980;19.776;2023-02-13T02:35:34;101300.78;;;3.00;100.00
38939;BME280;24211;49.980;19.776;2023-02-13T02:38:31;101299.13;;;2.99;100.00
38939;BME280;24211;49.980;19.776;2023-02-13T02:44:23;101283.13;;;3.00;100.00
38939;BME280;24211;49.980;19.776;2023-02-13T02:47:32;101288.31;;;3.02;100.00
38939;BME280;24211;49.980;19.776;2023-02-13T02:53:44;101295.25;;;3.03;100.00
38939;BME280;24211;49.980;19.776;2023-02-13T02:56:35;101304.16;;;3.02;100.00
38939;BME280;24211;49.980;19.776;2023-02-13T02:59:15;101297.19;;;3.01;100.00
38939;BME280;24211;49.980;19.776;2023-02-13T03:02:04;101300.53;;;3.03;100.00
38939;BME280;24211;49.980;19.776;2023-02-13T03:04:55;101305.81;;;3.03;100.00
38939;BME280;24211;49.980;19.776;2023-02-13T03:07:43;101304.16;;;3.02;100.00
38939;BME280;24211;49.980;19.776;2023-02-13T03:10:20;101306.06;;;3.00;100.00
38939;BME280;24211;49.980;19.776;2023-02-13T03:13:16;101312.34;;;2.99;100.00
38939;BME280;24211;49.980;19.776;2023-02-13T03:15:59;101303.44;;;3.00;100.00
38939;BME280;24211;49.980;19.776;2023-02-13T03:18:55;101304.41;;;2.99;100.00
38939;BME280;24211;49.980;19.776;2023-02-13T03:22:08;101311.63;;;2.97;100.00
38939;BME280;24211;49.980;19.776;2023-02-13T03:25:06;101311.88;;;2.94;100.00
38939;BME280;24211;49.980;19.776;2023-02-13T03:28:11;101314.50;;;2.94;100.00
38939;BME280;24211;49.980;19.776;2023-02-13T03:31:20;101315.47;;;2.93;100.00
38939;BME280;24211;49.980;19.776;2023-02-13T03:40:00;101315.84;;;2.88;100.00
38939;BME280;24211;49.980;19.776;2023-02-13T03:42:39;101330.59;;;2.91;100.00
38939;BME280;24211;49.980;19.776;2023-02-13T03:45:16;101326.88;;;2.93;100.00
38939;BME280;24211;49.980;19.776;2023-02-13T03:48:06;101326.03;;;2.93;100.00
38939;BME280;24211;49.980;19.776;2023-02-13T03:51:02;101318.09;;;2.93;100.00
38939;BME280;24211;49.980;19.776;2023-02-13T03:53:33;101324.38;;;2.92;100.00
38939;BME280;24211;49.980;19.776;2023-02-13T03:56:03;101324.63;;;2.89;100.00
38939;BME280;24211;49.980;19.776;2023-02-13T03:58:53;101328.22;;;2.88;100.00
38939;BME280;24211;49.980;19.776;2023-02-13T04:02:11;101321.28;;;2.87;100.00
38939;BME280;24211;49.980;19.776;2023-02-13T04:04:58;101326.56;;;2.87;100.00
38939;BME280;24211;49.980;19.776;2023-02-13T04:07:30;101327.97;;;2.91;100.00
38939;BME280;24211;49.980;19.776;2023-02-13T04:10:08;101327.72;;;2.94;100.00
38939;BME280;24211;49.980;19.776;2023-02-13T04:12:57;101327.47;;;2.97;100.00
38939;BME280;24211;49.980;19.776;2023-02-13T04:16:11;101323.84;;;2.98;100.00
38939;BME280;24211;49.980;19.776;2023-02-13T04:18:42;101325.53;;;2.99;100.00
38939;BME280;24211;49.980;19.776;2023-02-13T04:21:09;101325.53;;;2.99;100.00
38939;BME280;24211;49.980;19.776;2023-02-13T04:23:37;101322.06;;;2.98;100.00
38939;BME280;24211;49.980;19.776;2023-02-13T04:26:16;101322.31;;;2.95;100.00
38939;BME280;24211;49.980;19.776;2023-02-13T04:28:44;101316.44;;;2.92;100.00
38939;BME280;24211;49.980;19.776;2023-02-13T04:31:11;101316.69;;;2.89;100.00
38939;BME280;24211;49.980;19.776;2023-02-13T04:33:38;101309.63;;;2.89;100.00
38939;BME280;24211;49.980;19.776;2023-02-13T04:36:06;101324.47;;;2.90;100.00
38939;BME280;24211;49.980;19.776;2023-02-13T04:38:33;101319.09;;;2.92;100.00
38939;BME280;24211;49.980;19.776;2023-02-13T04:41:00;101317.41;;;2.91;100.00
38939;BME280;24211;49.980;19.776;2023-02-13T04:43:27;101325.31;;;2.91;100.00
38939;BME280;24211;49.980;19.776;2023-02-13T04:45:55;101319.09;;;2.92;100.00
38939;BME280;24211;49.980;19.776;2023-02-13T04:48:22;101319.09;;;2.92;100.00
38939;BME280;24211;49.980;19.776;2023-02-13T04:50:49;101315.75;;;2.90;100.00
38939;BME280;24211;49.980;19.776;2023-02-13T04:53:16;101321.03;;;2.90;100.00
38939;BME280;24211;49.980;19.776;2023-02-13T04:55:44;101320.75;;;2.93;100.00
38939;BME280;24211;49.980;19.776;2023-02-13T04:58:11;101320.50;;;2.96;100.00
38939;BME280;24211;49.980;19.776;2023-02-13T05:00:38;101314.50;;;2.94;100.00
38939;BME280;24211;49.980;19.776;2023-02-13T05:03:11;101320.50;;;2.96;100.00
38939;BME280;24211;49.980;19.776;2023-02-13T05:05:39;101311.88;;;2.94;100.00
38939;BME280;24211;49.980;19.776;2023-02-13T05:08:07;101312.47;;;2.97;100.00
38939;BME280;24211;49.980;19.776;2023-02-13T05:10:35;101314.13;;;2.98;100.00
38939;BME280;24211;49.980;19.776;2023-02-13T05:13:02;101320.25;;;2.99;100.00
38939;BME280;24211;49.980;19.776;2023-02-13T05:15:30;101313.56;;;2.95;100.00
38939;BME280;24211;49.980;19.776;2023-02-13T05:17:57;101315.22;;;2.96;100.00
38939;BME280;24211;49.980;19.776;2023-02-13T05:20:24;101317.88;;;2.96;100.00
38939;BME280;24211;49.980;19.776;2023-02-13T05:22:53;101322.44;;;2.94;100.00
38939;BME280;24211;49.980;19.776;2023-02-13T05:25:40;101323.38;;;2.93;100.00
38939;BME280;24211;49.980;19.776;2023-02-13T05:28:08;101317.41;;;2.91;100.00
38939;BME280;24211;49.980;19.776;2023-02-13T05:30:54;101314.31;;;2.86;100.00
38939;BME280;24211;49.980;19.776;2023-02-13T05:33:22;101320.56;;;2.85;100.00
38939;BME280;24211;49.980;19.776;2023-02-13T05:35:49;101322.22;;;2.86;100.00
38939;BME280;24211;49.980;19.776;2023-02-13T05:38:16;101319.59;;;2.86;100.00
38939;BME280;24211;49.980;19.776;2023-02-13T05:40:44;101324.03;;;2.85;100.00
38939;BME280;24211;49.980;19.776;2023-02-13T05:43:11;101318.88;;;2.84;100.00
38939;BME280;24211;49.980;19.776;2023-02-13T05:45:38;101324.88;;;2.86;100.00
38939;BME280;24211;49.980;19.776;2023-02-13T05:48:05;101323.06;;;2.86;100.00
38939;BME280;24211;49.980;19.776;2023-02-13T05:50:32;101332.78;;;2.86;100.00
38939;BME280;24211;49.980;19.776;2023-02-13T05:53:00;101330.84;;;2.88;100.00
38939;BME280;24211;49.980;19.776;2023-02-13T05:55:27;101327.97;;;2.91;100.00
38939;BME280;24211;49.980;19.776;2023-02-13T05:57:56;101333.25;;;2.91;100.00
38939;BME280;24211;49.980;19.776;2023-02-13T06:00:24;101333.25;;;2.91;100.00
38939;BME280;24211;49.980;19.776;2023-02-13T06:02:51;101330.59;;;2.91;100.00
38939;BME280;24211;49.980;19.776;2023-02-13T06:05:18;101332.41;;;2.90;100.00
38939;BME280;24211;49.980;19.776;2023-02-13T06:07:45;101330.75;;;2.89;100.00
38939;BME280;24211;49.980;19.776;2023-02-13T06:10:13;101331.31;;;2.93;100.00
38939;BME280;24211;49.980;19.776;2023-02-13T06:12:42;101329.41;;;2.95;100.00
38939;BME280;24211;49.980;19.776;2023-02-13T06:15:09;101322.19;;;2.97;100.00
38939;BME280;24211;49.980;19.776;2023-02-13T06:17:36;101321.91;;;3.00;100.00
38939;BME280;24211;49.980;19.776;2023-02-13T06:20:05;101324.19;;;3.04;100.00
38939;BME280;24211;49.980;19.776;2023-02-13T06:22:32;101322.38;;;3.05;100.00
38939;BME280;24211;49.980;19.776;2023-02-13T06:24:59;101319.47;;;3.08;100.00
38939;BME280;24211;49.980;19.776;2023-02-13T06:27:26;101327.28;;;3.09;100.00
38939;BME280;24211;49.980;19.776;2023-02-13T06:29:54;101324.28;;;3.14;100.00
38939;BME280;24211;49.980;19.776;2023-02-13T06:32:21;101326.66;;;3.17;100.00
38939;BME280;24211;49.980;19.776;2023-02-13T06:34:48;101326.53;;;3.18;100.00
38939;BME280;24211;49.980;19.776;2023-02-13T06:37:15;101326.38;;;3.20;100.00
38939;BME280;24211;49.980;19.776;2023-02-13T06:39:42;101332.38;;;3.22;100.00
38939;BME280;24211;49.980;19.776;2023-02-13T06:42:09;101335.75;;;3.24;100.00
38939;BME280;24211;49.980;19.776;2023-02-13T06:44:36;101334.06;;;3.23;100.00
38939;BME280;24211;49.980;19.776;2023-02-13T06:47:03;101343.22;;;3.19;100.00
38939;BME280;24211;49.980;19.776;2023-02-13T06:49:31;101350.16;;;3.20;100.00
38939;BME280;24211;49.980;19.776;2023-02-13T06:51:58;101351.84;;;3.21;100.00
38939;BME280;24211;49.980;19.776;2023-02-13T06:54:25;101351.59;;;3.24;100.00
38939;BME280;24211;49.980;19.776;2023-02-13T06:57:12;101354.09;;;3.25;100.00
38939;BME280;24211;49.980;19.776;2023-02-13T06:59:39;101349.66;;;3.26;100.00
38939;BME280;24211;49.980;19.776;2023-02-13T07:02:08;101354.69;;;3.29;100.00
38939;BME280;24211;49.980;19.776;2023-02-13T07:04:36;101357.06;;;3.32;100.00
38939;BME280;24211;49.980;19.776;2023-02-13T07:07:03;101349.13;;;3.32;100.00
38939;BME280;24211;49.980;19.776;2023-02-13T07:09:31;101346.25;;;3.35;100.00
38939;BME280;24211;49.980;19.776;2023-02-13T07:12:02;101350.56;;;3.36;100.00
38939;BME280;24211;49.980;19.776;2023-02-13T07:14:30;101357.25;;;3.40;100.00
38939;BME280;24211;49.980;19.776;2023-02-13T07:16:57;101355.31;;;3.42;100.00
38939;BME280;24211;49.980;19.776;2023-02-13T07:19:25;101361.19;;;3.46;100.00
38939;BME280;24211;49.980;19.776;2023-02-13T07:21:52;101360.09;;;3.48;100.00
38939;BME280;24211;49.980;19.776;2023-02-13T07:24:19;101355.38;;;3.52;100.00
38939;BME280;24211;49.980;19.776;2023-02-13T07:26:46;101349.00;;;3.54;100.00
38939;BME280;24211;49.980;19.776;2023-02-13T07:29:14;101352.38;;;3.56;100.00
38939;BME280;24211;49.980;19.776;2023-02-13T07:31:40;101360.00;;;3.59;100.00
38939;BME280;24211;49.980;19.776;2023-02-13T07:34:08;101360.72;;;3.61;100.00
38939;BME280;24211;49.980;19.776;2023-02-13T07:36:35;101362.16;;;3.65;100.00
38939;BME280;24211;49.980;19.776;2023-02-13T07:39:02;101360.22;;;3.67;100.00
38939;BME280;24211;49.980;19.776;2023-02-13T07:41:29;101346.75;;;3.70;100.00
38939;BME280;24211;49.980;19.776;2023-02-13T07:43:57;101351.47;;;3.76;100.00
38939;BME280;24211;49.980;19.776;2023-02-13T07:46:23;101355.69;;;3.79;100.00
38939;BME280;24211;49.980;19.776;2023-02-13T07:48:52;101353.63;;;3.82;100.00
38939;BME280;24211;49.980;19.776;2023-02-13T07:51:19;101351.41;;;3.87;100.00
38939;BME280;24211;49.980;19.776;2023-02-13T07:53:46;101353.81;;;3.90;100.00
38939;BME280;24211;49.980;19.776;2023-02-13T07:56:13;101354.25;;;3.95;100.00
38939;BME280;24211;49.980;19.776;2023-02-13T07:58:41;101350.34;;;4.00;100.00
38939;BME280;24211;49.980;19.776;2023-02-13T08:01:17;101348.41;;;4.02;100.00
38939;BME280;24211;49.980;19.776;2023-02-13T08:03:49;101352.34;;;4.07;100.00
38939;BME280;24211;49.980;19.776;2023-02-13T08:06:18;101352.88;;;4.11;100.00
38939;BME280;24211;49.980;19.776;2023-02-13T08:08:46;101345.38;;;4.16;100.00
38939;BME280;24211;49.980;19.776;2023-02-13T08:11:30;101339.84;;;4.19;100.00
38939;BME280;24211;49.980;19.776;2023-02-13T08:14:19;101334.00;;;4.25;100.00
38939;BME280;24211;49.980;19.776;2023-02-13T08:16:47;101329.59;;;4.35;100.00
38939;BME280;24211;49.980;19.776;2023-02-13T08:19:14;101331.81;;;4.39;100.00
38939;BME280;24211;49.980;19.776;2023-02-13T08:21:42;101337.25;;;4.47;100.00
38939;BME280;24211;49.980;19.776;2023-02-13T08:24:10;101345.78;;;4.51;100.00
38939;BME280;24211;49.980;19.776;2023-02-13T08:26:38;101347.16;;;4.55;100.00
38939;BME280;24211;49.980;19.776;2023-02-13T08:29:06;101339.53;;;4.61;100.00
38939;BME280;24211;49.980;19.776;2023-02-13T08:31:33;101336.47;;;4.66;100.00
38939;BME280;24211;49.980;19.776;2023-02-13T08:34:01;101331.59;;;4.71;100.00
38939;BME280;24211;49.980;19.776;2023-02-13T08:36:30;101338.00;;;4.78;100.00
38939;BME280;24211;49.980;19.776;2023-02-13T08:38:57;101337.44;;;4.84;100.00
38939;BME280;24211;49.980;19.776;2023-02-13T08:41:24;101347.22;;;4.93;100.00
38939;BME280;24211;49.980;19.776;2023-02-13T08:43:53;101343.16;;;4.99;100.00
38939;BME280;24211;49.980;19.776;2023-02-13T08:46:21;101332.72;;;5.07;100.00
38939;BME280;24211;49.980;19.776;2023-02-13T08:48:52;101331.88;;;5.16;100.00
38939;BME280;24211;49.980;19.776;2023-02-13T08:51:19;101336.34;;;5.25;100.00
38939;BME280;24211;49.980;19.776;2023-02-13T08:53:46;101322.38;;;5.33;100.00
38939;BME280;24211;49.980;19.776;2023-02-13T08:56:13;101328.78;;;5.40;100.00
38939;BME280;24211;49.980;19.776;2023-02-13T08:58:40;101338.78;;;5.46;100.00
38939;BME280;24211;49.980;19.776;2023-02-13T09:01:08;101337.53;;;5.50;100.00
38939;BME280;24211;49.980;19.776;2023-02-13T09:03:36;101336.28;;;5.54;100.00
38939;BME280;24211;49.980;19.776;2023-02-13T09:06:03;101326.75;;;5.61;100.00
38939;BME280;24211;49.980;19.776;2023-02-13T09:08:33;101322.53;;;5.68;100.00
38939;BME280;24211;49.980;19.776;2023-02-13T09:11:03;101316.53;;;5.75;100.00
38939;BME280;24211;49.980;19.776;2023-02-13T09:13:34;101315.78;;;5.83;100.00
38939;BME280;24211;49.980;19.776;2023-02-13T09:16:06;101322.53;;;5.87;100.00
38939;BME280;24211;49.980;19.776;2023-02-13T09:18:34;101319.44;;;5.91;100.00
38939;BME280;24211;49.980;19.776;2023-02-13T09:21:08;101323.63;;;5.94;100.00
38939;BME280;24211;49.980;19.776;2023-02-13T09:23:39;101330.28;;;5.98;100.00
38939;BME280;24211;49.980;19.776;2023-02-13T09:26:10;101328.03;;;6.03;100.00
38939;BME280;24211;49.980;19.776;2023-02-13T09:28:39;101323.53;;;6.13;100.00
38939;BME280;24211;49.980;19.776;2023-02-13T09:31:09;101328.22;;;6.19;100.00
38939;BME280;24211;49.980;19.776;2023-02-13T09:33:37;101325.84;;;6.26;100.00
38939;BME280;24211;49.980;19.776;2023-02-13T09:36:11;101320.75;;;6.32;100.00
38939;BME280;24211;49.980;19.776;2023-02-13T09:38:41;101322.84;;;6.38;100.00
38939;BME280;24211;49.980;19.776;2023-02-13T09:41:39;101313.97;;;6.47;100.00
38939;BME280;24211;49.980;19.776;2023-02-13T09:44:39;101314.34;;;6.52;100.00
38939;BME280;24211;49.980;19.776;2023-02-13T09:49:48;101322.41;;;6.61;100.00
38939;BME280;24211;49.980;19.776;2023-02-13T09:52:16;101313.16;;;6.65;100.00
38939;BME280;24211;49.980;19.776;2023-02-13T09:54:43;101312.56;;;6.71;100.00
38939;BME280;24211;49.980;19.776;2023-02-13T09:57:35;101307.53;;;6.68;100.00
38939;BME280;24211;49.980;19.776;2023-02-13T10:05:47;101301.31;;;6.77;100.00
38939;BME280;24211;49.980;19.776;2023-02-13T10:11:40;101303.38;;;6.83;100.00
38939;BME280;24211;49.980;19.776;2023-02-13T10:14:35;101297.06;;;6.84;100.00
38939;BME280;24211;49.980;19.776;2023-02-13T10:17:16;101294.63;;;6.90;100.00
38939;BME280;24211;49.980;19.776;2023-02-13T10:19:52;101295.84;;;6.96;100.00
38939;BME280;24211;49.980;19.776;2023-02-13T10:22:50;101297.59;;;7.05;100.00
38939;BME280;24211;49.980;19.776;2023-02-13T10:25:27;101287.31;;;7.10;100.00
38939;BME280;24211;49.980;19.776;2023-02-13T10:28:14;101286.03;;;7.14;100.00
38939;BME280;24211;49.980;19.776;2023-02-13T10:30:52;101266.25;;;7.16;100.00
38939;BME280;24211;49.980;19.776;2023-02-13T10:33:29;101270.63;;;7.25;100.00
38939;BME280;24211;49.980;19.776;2023-02-13T10:36:33;101254.91;;;7.32;100.00
38939;BME280;24211;49.980;19.776;2023-02-13T10:39:26;101258.63;;;7.39;100.00
38939;BME280;24211;49.980;19.776;2023-02-13T10:42:38;101252.66;;;7.45;100.00
38939;BME280;24211;49.980;19.776;2023-02-13T10:45:38;101251.19;;;7.51;100.00
38939;BME280;24211;49.980;19.776;2023-02-13T10:48:46;101251.56;;;7.56;100.00
38939;BME280;24211;49.980;19.776;2023-02-13T10:51:55;101250.41;;;7.58;100.00
38939;BME280;24211;49.980;19.776;2023-02-13T11:01:03;101229.84;;;7.68;100.00
38939;BME280;24211;49.980;19.776;2023-02-13T11:03:34;101232.19;;;7.79;100.00
38939;BME280;24211;49.980;19.776;2023-02-13T11:06:07;101231.03;;;7.82;100.00
38939;BME280;24211;49.980;19.776;2023-02-13T11:08:41;101224.88;;;7.81;100.00
38939;BME280;24211;49.980;19.776;2023-02-13T11:11:47;101223.06;;;7.74;100.00
38939;BME280;24211;49.980;19.776;2023-02-13T11:14:24;101226.16;;;7.69;100.00
38939;BME280;24211;49.980;19.776;2023-02-13T11:17:05;101215.03;;;7.66;100.00
38939;BME280;24211;49.980;19.776;2023-02-13T11:19:49;101208.84;;;7.65;100.00
38939;BME280;24211;49.980;19.776;2023-02-13T11:22:36;101212.50;;;7.64;100.00
38939;BME280;24211;49.980;19.776;2023-02-13T11:25:17;101212.19;;;7.67;100.00
38939;BME280;24211;49.980;19.776;2023-02-13T11:27:49;101212.41;;;7.74;100.00
38939;BME280;24211;49.980;19.776;2023-02-13T11:30:34;101212.06;;;7.77;100.00
38939;BME280;24211;49.980;19.776;2023-02-13T11:35:46;101214.91;;;7.75;100.00
38939;BME280;24211;49.980;19.776;2023-02-13T11:41:03;101212.53;;;7.72;100.00
38939;BME280;24211;49.980;19.776;2023-02-13T11:43:46;101223.22;;;7.80;100.00
38939;BME280;24211;49.980;19.776;2023-02-13T11:46:24;101218.56;;;7.82;100.00
38939;BME280;24211;49.980;19.776;2023-02-13T11:49:05;101219.91;;;7.78;100.00
38939;BME280;24211;49.980;19.776;2023-02-13T11:51:41;101222.22;;;7.73;100.00
38939;BME280;24211;49.980;19.776;2023-02-13T11:57:19;101210.84;;;7.63;100.00
38939;BME280;24211;49.980;19.776;2023-02-13T11:59:50;101212.84;;;7.61;100.00
38939;BME280;24211;49.980;19.776;2023-02-13T12:02:28;101223.91;;;7.49;100.00
38939;BME280;24211;49.980;19.776;2023-02-13T12:07:47;101220.94;;;7.26;100.00
38939;BME280;24211;49.980;19.776;2023-02-13T12:10:29;101208.81;;;7.23;100.00
38939;BME280;24211;49.980;19.776;2023-02-13T12:13:03;101223.91;;;7.23;100.00
38939;BME280;24211;49.980;19.776;2023-02-13T12:15:35;101216.31;;;7.28;100.00
38939;BME280;24211;49.980;19.776;2023-02-13T12:18:24;101214.31;;;7.30;100.00
38939;BME280;24211;49.980;19.776;2023-02-13T12:27:00;101198.94;;;7.16;100.00
38939;BME280;24211;49.980;19.776;2023-02-13T12:38:55;101193.03;;;7.30;100.00
38939;BME280;24211;49.980;19.776;2023-02-13T12:47:24;101165.31;;;7.74;100.00
38939;BME280;24211;49.980;19.776;2023-02-13T12:50:23;101162.84;;;7.81;100.00
38939;BME280;24211;49.980;19.776;2023-02-13T12:56:29;101165.38;;;7.90;100.00
38939;BME280;24211;49.980;19.776;2023-02-13T12:59:08;101158.53;;;7.96;100.00
38939;BME280;24211;49.980;19.776;2023-02-13T13:02:01;101169.41;;;8.03;100.00
38939;BME280;24211;49.980;19.776;2023-02-13T13:11:02;101163.41;;;8.01;100.00
38939;BME280;24211;49.980;19.776;2023-02-13T13:17:01;101174.03;;;7.93;100.00
38939;BME280;24211;49.980;19.776;2023-02-13T13:20:21;101181.66;;;7.87;100.00
38939;BME280;24211;49.980;19.776;2023-02-13T13:23:12;101179.63;;;7.73;100.00
38939;BME280;24211;49.980;19.776;2023-02-13T13:28:41;101192.19;;;7.55;100.00
38939;BME280;24211;49.980;19.776;2023-02-13T13:31:12;101185.16;;;7.46;100.00
38939;BME280;24211;49.980;19.776;2023-02-13T13:33:44;101188.13;;;7.43;100.00
38939;BME280;24211;49.980;19.776;2023-02-13T13:42:11;101178.22;;;7.28;100.00
38939;BME280;24211;49.980;19.776;2023-02-13T13:45:04;101184.03;;;7.23;100.00
38939;BME280;24211;49.980;19.776;2023-02-13T13:47:59;101186.03;;;7.21;100.00
38939;BME280;24211;49.980;19.776;2023-02-13T13:50:38;101188.84;;;7.19;100.00
38939;BME280;24211;49.980;19.776;2023-02-13T13:53:20;101185.34;;;7.19;100.00
38939;BME280;24211;49.980;19.776;2023-02-13T13:58:46;101184.81;;;7.15;100.00
38939;BME280;24211;49.980;19.776;2023-02-13T14:03:53;101183.00;;;7.16;100.00
38939;BME280;24211;49.980;19.776;2023-02-13T14:06:27;101178.66;;;7.15;100.00
38939;BME280;24211;49.980;19.776;2023-02-13T14:09:40;101172.00;;;7.11;100.00
38939;BME280;24211;49.980;19.776;2023-02-13T14:14:52;101167.00;;;7.08;100.00
38939;BME280;24211;49.980;19.776;2023-02-13T14:20:49;101177.63;;;7.08;100.00
38939;BME280;24211;49.980;19.776;2023-02-13T14:31:39;101166.25;;;6.98;100.00
38939;BME280;24211;49.980;19.776;2023-02-13T14:34:20;101159.59;;;6.94;100.00
38939;BME280;24211;49.980;19.776;2023-02-13T14:39:36;101160.75;;;6.91;100.00
38939;BME280;24211;49.980;19.776;2023-02-13T14:42:27;101156.38;;;6.82;100.00
38939;BME280;24211;49.980;19.776;2023-02-13T14:44:58;101147.56;;;6.82;100.00
38939;BME280;24211;49.980;19.776;2023-02-13T14:47:53;101138.75;;;6.81;100.00
38939;BME280;24211;49.980;19.776;2023-02-13T14:50:28;101140.91;;;6.78;100.00
38939;BME280;24211;49.980;19.776;2023-02-13T14:52:59;101135.22;;;6.73;100.00
38939;BME280;24211;49.980;19.776;2023-02-13T14:55:40;101128.22;;;6.72;100.00
38939;BME280;24211;49.980;19.776;2023-02-13T14:58:44;101112.94;;;6.66;100.00
38939;BME280;24211;49.980;19.776;2023-02-13T15:01:38;101120.53;;;6.61;100.00
38939;BME280;24211;49.980;19.776;2023-02-13T15:04:34;101124.16;;;6.59;100.00
38939;BME280;24211;49.980;19.776;2023-02-13T15:07:19;101120.53;;;6.61;100.00
38939;BME280;24211;49.980;19.776;2023-02-13T15:09:59;101118.53;;;6.63;100.00
38939;BME280;24211;49.980;19.776;2023-02-13T15:12:34;101120.53;;;6.61;100.00
38939;BME280;24211;49.980;19.776;2023-02-13T15:15:24;101123.13;;;6.52;100.00
38939;BME280;24211;49.980;19.776;2023-02-13T15:18:08;101125.41;;;6.47;100.00